Time;durP1;ratioP1;P1;durP2;ratioP2;P2;SDS_P1;SDS_P2;PMS_P1;PMS_P2;Temp;Humidity;BMP_temperature;BMP_pressure;BME280_temperature;BME280_humidity;BME280_pressure;Samples;Min_cycle;Max_cycle;Signal;HPM_P1;HPM_P2
2021/10/14 00:00:40;;;;;;;31.27;12.73;;;;;;;13.14;100.00;99653.38;5019094;28;20106;-80
2021/10/14 00:03:08;;;;;;;27.63;12.47;;;;;;;13.15;100.00;99643.25;5018340;28;20049;-80
2021/10/14 00:05:36;;;;;;;28.17;13.20;;;;;;;13.15;100.00;99645.97;5014935;28;20053;-80
2021/10/14 00:08:03;;;;;;;43.00;13.03;;;;;;;13.15;100.00;99644.03;5024654;28;20084;-80
2021/10/14 00:10:31;;;;;;;48.83;13.83;;;;;;;13.15;100.00;99645.97;5007651;28;20082;-79
2021/10/14 00:12:58;;;;;;;33.93;13.17;;;;;;;13.14;100.00;99656.09;5020448;28;20077;-79
2021/10/14 00:15:26;;;;;;;32.13;13.40;;;;;;;13.14;100.00;99656.09;5011784;28;20053;-80
2021/10/14 00:17:53;;;;;;;49.57;12.83;;;;;;;13.11;100.00;99654.28;5014078;28;20149;-79
2021/10/14 00:20:21;;;;;;;31.07;14.27;;;;;;;13.10;100.00;99652.00;5014415;28;20466;-79
2021/10/14 00:22:47;;;;;;;30.63;15.23;;;;;;;13.09;100.00;99651.22;5013672;28;20104;-80
2021/10/14 00:25:14;;;;;;;35.80;14.00;;;;;;;13.10;100.00;99650.03;5016103;28;20129;-80
2021/10/14 00:27:41;;;;;;;34.00;14.67;;;;;;;13.13;100.00;99659.28;5024444;28;20112;-80
2021/10/14 00:30:08;;;;;;;37.33;15.07;;;;;;;13.15;100.00;99663.09;5014219;28;20145;-80
2021/10/14 00:32:35;;;;;;;34.00;14.53;;;;;;;13.18;100.00;99667.66;5011466;28;20057;-80
2021/10/14 00:35:02;;;;;;;42.27;13.90;;;;;;;13.20;100.00;99667.97;5007568;28;20046;-80
2021/10/14 00:37:29;;;;;;;31.50;13.97;;;;;;;13.19;100.00;99669.19;5004132;28;20080;-79
2021/10/14 00:39:56;;;;;;;34.57;14.17;;;;;;;13.18;100.00;99667.66;5010910;28;20126;-80
2021/10/14 00:42:23;;;;;;;28.00;13.97;;;;;;;13.18;100.00;99667.66;5000540;28;20075;-79
2021/10/14 00:44:53;;;;;;;31.07;13.77;;;;;;;13.21;100.00;99666.78;5008797;28;20081;-78
2021/10/14 00:47:28;;;;;;;33.90;13.77;;;;;;;13.22;100.00;99676.47;4999422;28;20141;-79
2021/10/14 00:49:55;;;;;;;31.50;12.80;;;;;;;13.22;100.00;99679.19;5012914;28;20073;-79
2021/10/14 00:52:24;;;;;;;26.07;11.83;;;;;;;13.22;100.00;99679.19;5024648;28;20073;-79
2021/10/14 00:54:52;;;;;;;28.53;12.90;;;;;;;13.23;100.00;99686.16;5007193;28;20129;-79
2021/10/14 00:57:20;;;;;;;27.43;12.40;;;;;;;13.26;100.00;99690.72;5021846;28;20140;-79
2021/10/14 00:59:47;;;;;;;24.77;12.40;;;;;;;13.26;100.00;99690.72;5039576;28;20087;-79
2021/10/14 01:02:14;;;;;;;19.57;11.03;;;;;;;13.27;100.00;99691.47;5008475;28;20137;-78
2021/10/14 01:04:41;;;;;;;13.20;8.80;;;;;;;13.28;100.00;99693.75;5018538;28;20514;-79
2021/10/14 01:07:08;;;;;;;16.03;8.00;;;;;;;13.29;100.00;99699.97;5004086;28;20080;-78
2021/10/14 01:09:34;;;;;;;10.00;6.20;;;;;;;13.25;100.00;99711.00;5012037;28;20140;-79
2021/10/14 01:12:03;;;;;;;10.50;6.40;;;;;;;13.21;100.00;99715.84;5007307;28;20148;-79
2021/10/14 01:14:31;;;;;;;12.47;8.40;;;;;;;13.15;100.00;99728.50;5007433;28;20045;-80
2021/10/14 01:16:58;;;;;;;11.77;8.23;;;;;;;13.06;99.74;99736.59;5011996;28;20133;-80
2021/10/14 01:19:24;;;;;;;10.33;7.83;;;;;;;12.95;99.44;99731.53;5041431;28;20081;-80
2021/10/14 01:21:52;;;;;;;11.03;7.47;;;;;;;12.80;98.95;99740.63;5007498;28;20045;-78
2021/10/14 01:24:19;;;;;;;13.20;8.47;;;;;;;12.66;98.13;99746.56;5006356;28;20132;-79
2021/10/14 01:26:46;;;;;;;12.77;7.67;;;;;;;12.53;97.47;99752.78;5009029;28;20076;-79
2021/10/14 01:29:13;;;;;;;10.30;7.87;;;;;;;12.41;97.55;99767.22;5002773;28;20516;-80
2021/10/14 01:31:40;;;;;;;11.70;8.10;;;;;;;12.29;97.24;99773.41;5006318;28;20124;-80
2021/10/14 01:34:08;;;;;;;11.17;7.30;;;;;;;12.20;97.33;99776.06;5007571;28;20056;-80
2021/10/14 01:36:35;;;;;;;11.53;8.57;;;;;;;12.14;97.86;99783.22;5005650;28;20078;-80
2021/10/14 01:39:04;;;;;;;12.57;9.30;;;;;;;12.08;97.91;99787.69;5006376;28;20049;-79
2021/10/14 01:41:30;;;;;;;16.20;10.77;;;;;;;12.00;96.70;99795.31;5038319;28;20181;-80
2021/10/14 01:43:57;;;;;;;16.70;10.73;;;;;;;11.94;97.31;99814.13;5013075;28;20081;-79
2021/10/14 01:46:24;;;;;;;19.03;10.70;;;;;;;11.91;97.62;99809.56;5012141;28;20153;-79
2021/10/14 01:48:51;;;;;;;21.17;12.00;;;;;;;11.87;97.46;99814.34;5009247;28;20052;-79
2021/10/14 01:51:18;;;;;;;22.07;11.40;;;;;;;11.79;96.98;99823.94;5007014;28;20397;-79
2021/10/14 01:53:45;;;;;;;19.93;11.00;;;;;;;11.69;95.26;99824.94;5004000;28;20078;-80
2021/10/14 01:56:12;;;;;;;12.07;9.23;;;;;;;11.59;95.80;99828.72;5005763;28;20077;-80
2021/10/14 01:58:38;;;;;;;14.03;8.87;;;;;;;11.52;96.04;99826.22;5009127;28;20802;-80
2021/10/14 02:01:05;;;;;;;10.77;7.50;;;;;;;11.45;96.14;99837.28;5012062;28;20145;-80
2021/10/14 02:03:32;;;;;;;12.73;8.10;;;;;;;11.39;95.56;99839.00;5016913;28;20576;-78
2021/10/14 02:05:59;;;;;;;9.93;7.30;;;;;;;11.36;96.06;99848.00;5013594;28;20055;-78
2021/10/14 02:08:27;;;;;;;10.20;7.40;;;;;;;11.27;95.74;99854.06;5011749;28;20048;-79
2021/10/14 02:10:54;;;;;;;10.23;6.83;;;;;;;11.17;94.85;99858.59;5023322;28;20179;-80
2021/10/14 02:13:20;;;;;;;9.63;6.33;;;;;;;11.12;95.98;99864.53;5043638;28;20573;-81
2021/10/14 02:15:47;;;;;;;9.17;6.33;;;;;;;11.09;95.80;99865.41;5007762;28;20061;-80
2021/10/14 02:18:14;;;;;;;8.20;6.67;;;;;;;11.08;95.07;99874.75;5005554;28;20081;-79
2021/10/14 02:20:41;;;;;;;9.50;5.57;;;;;;;11.05;95.70;99875.59;5009639;28;20333;-79
2021/10/14 02:23:07;;;;;;;7.63;5.60;;;;;;;11.03;95.84;99894.28;5013701;28;20050;-80
2021/10/14 02:25:35;;;;;;;5.93;4.43;;;;;;;10.99;95.83;99909.88;5008313;28;20046;-79
2021/10/14 02:28:02;;;;;;;6.90;5.10;;;;;;;10.96;95.68;99920.84;5012787;28;20136;-80
2021/10/14 02:30:29;;;;;;;7.47;4.70;;;;;;;10.94;94.95;99930.16;5014578;28;20077;-80
2021/10/14 02:32:56;;;;;;;4.87;4.13;;;;;;;10.97;95.25;99934.00;5008341;28;20049;-79
2021/10/14 02:35:22;;;;;;;6.20;4.20;;;;;;;10.94;94.38;99940.28;5012552;28;20508;-80
2021/10/14 02:37:49;;;;;;;5.00;3.90;;;;;;;10.92;94.33;99943.41;5010244;28;20077;-80
2021/10/14 02:40:16;;;;;;;4.67;3.83;;;;;;;10.91;95.07;99950.03;5013767;28;20046;-81
2021/10/14 02:42:43;;;;;;;7.17;3.50;;;;;;;10.90;95.02;99953.16;5013792;28;20130;-81
2021/10/14 02:45:09;;;;;;;5.43;3.83;;;;;;;10.89;95.10;99965.22;5005142;28;20467;-80
2021/10/14 02:47:36;;;;;;;4.37;3.97;;;;;;;10.89;94.64;99979.56;5024996;28;20081;-80
2021/10/14 02:50:04;;;;;;;5.20;3.53;;;;;;;10.89;94.26;99981.50;5037610;28;20145;-80
2021/10/14 02:52:30;;;;;;;3.33;3.03;;;;;;;10.86;93.95;99987.81;5009315;28;20473;-81
2021/10/14 02:54:57;;;;;;;3.80;3.20;;;;;;;10.86;94.29;99998.66;5010727;28;20188;-80
2021/10/14 02:57:24;;;;;;;3.77;2.83;;;;;;;10.86;94.36;100001.38;5006962;28;20124;-79
2021/10/14 02:59:51;;;;;;;3.43;3.13;;;;;;;10.78;93.36;100013.59;5008705;28;20085;-80
2021/10/14 03:02:17;;;;;;;4.10;3.00;;;;;;;10.76;94.12;100015.94;5012523;28;20469;-80
2021/10/14 03:04:44;;;;;;;3.63;3.13;;;;;;;10.78;93.93;100024.44;5013878;28;20056;-80
2021/10/14 03:07:11;;;;;;;5.43;3.07;;;;;;;10.75;93.02;100025.28;5011649;28;20137;-81
2021/10/14 03:09:38;;;;;;;5.87;3.43;;;;;;;10.77;93.15;100025.63;5009192;28;20073;-80
2021/10/14 03:12:05;;;;;;;5.63;3.00;;;;;;;10.74;93.54;100040.03;5035251;28;20141;-79
2021/10/14 03:14:32;;;;;;;3.20;2.90;;;;;;;10.74;93.39;100038.09;5013169;28;20136;-80
2021/10/14 03:16:59;;;;;;;4.53;3.20;;;;;;;10.70;93.17;100050.19;5011873;28;20109;-79
2021/10/14 03:19:26;;;;;;;4.77;2.57;;;;;;;10.66;93.00;100049.50;5011863;28;20486;-80
2021/10/14 03:21:52;;;;;;;3.27;2.50;;;;;;;10.67;93.93;100057.22;5008342;28;20136;-81
2021/10/14 03:24:19;;;;;;;3.83;2.80;;;;;;;10.64;91.74;100057.31;5012094;28;20132;-79
2021/10/14 03:26:46;;;;;;;3.63;3.03;;;;;;;10.65;92.84;100058.84;5011930;28;20147;-80
2021/10/14 03:29:13;;;;;;;3.90;3.23;;;;;;;10.64;92.40;100068.16;5034942;28;20125;-80
2021/10/14 03:31:39;;;;;;;4.10;3.70;;;;;;;10.64;93.26;100071.66;5010194;28;20518;-79
2021/10/14 03:34:06;;;;;;;4.17;3.70;;;;;;;10.62;92.45;100075.97;5004914;28;20050;-79
2021/10/14 03:36:33;;;;;;;4.13;3.40;;;;;;;10.57;92.73;100080.72;5007671;28;20050;-81
2021/10/14 03:39:00;;;;;;;5.43;4.20;;;;;;;10.57;93.20;100090.81;5010727;28;20121;-81
2021/10/14 03:41:27;;;;;;;4.70;3.97;;;;;;;10.52;91.75;100089.34;5008533;28;20141;-80
2021/10/14 03:43:54;;;;;;;5.27;4.00;;;;;;;10.46;92.57;100101.84;5015745;28;20140;-80
2021/10/14 03:46:20;;;;;;;5.17;4.27;;;;;;;10.47;92.44;100100.69;4965544;28;1255343;-80
2021/10/14 03:48:47;;;;;;;4.20;3.27;;;;;;;10.48;92.37;100110.34;5038498;28;20049;-80
2021/10/14 03:51:14;;;;;;;4.40;3.47;;;;;;;10.48;92.69;100110.34;5010073;28;20137;-81
2021/10/14 03:53:41;;;;;;;4.47;3.20;;;;;;;10.49;91.31;100127.41;5007422;28;20054;-80
2021/10/14 03:56:08;;;;;;;5.33;3.90;;;;;;;10.49;92.06;100128.16;5008944;28;20758;-80
2021/10/14 03:58:35;;;;;;;5.10;3.50;;;;;;;10.49;92.68;100133.59;5007476;28;20152;-79
2021/10/14 04:01:01;;;;;;;4.87;3.73;;;;;;;10.43;91.80;100132.53;5014724;28;20124;-81
2021/10/14 04:03:28;;;;;;;5.90;3.30;;;;;;;10.42;91.22;100144.56;5016322;28;20053;-81
2021/10/14 04:05:55;;;;;;;5.23;3.20;;;;;;;10.37;91.68;100147.78;5007617;28;20479;-79
2021/10/14 04:08:22;;;;;;;4.97;3.60;;;;;;;10.39;92.39;100155.53;5012080;28;20087;-79
2021/10/14 04:10:49;;;;;;;4.80;3.67;;;;;;;10.39;92.42;100155.53;5017788;28;20124;-79
2021/10/14 04:13:15;;;;;;;4.10;3.47;;;;;;;10.37;91.69;100153.22;5013693;28;20491;-79
2021/10/14 04:15:42;;;;;;;4.67;3.67;;;;;;;10.36;91.55;100157.13;5012618;28;20053;-80
2021/10/14 04:18:10;;;;;;;4.77;3.20;;;;;;;10.36;91.48;100173.41;4999654;28;20439;-81
2021/10/14 04:20:37;;;;;;;5.57;3.67;;;;;;;10.37;91.78;100180.34;5008421;28;20558;-79
2021/10/14 04:23:03;;;;;;;4.73;3.50;;;;;;;10.35;91.61;100181.94;5009447;28;20586;-80
2021/10/14 04:25:30;;;;;;;6.60;3.97;;;;;;;10.32;91.20;100178.13;5011990;28;20546;-79
2021/10/14 04:27:57;;;;;;;5.63;4.07;;;;;;;10.31;90.93;100179.28;5011771;28;20089;-80
2021/10/14 04:30:24;;;;;;;6.07;4.47;;;;;;;10.31;90.74;100182.00;5010306;28;20050;-80
2021/10/14 04:32:51;;;;;;;7.20;4.23;;;;;;;10.30;90.84;100190.56;5019491;28;20506;-80
2021/10/14 04:35:18;;;;;;;6.50;4.30;;;;;;;10.29;89.53;100200.66;5010296;28;20097;-81
2021/10/14 04:37:45;;;;;;;6.73;4.67;;;;;;;10.31;90.43;100197.50;5015124;28;20125;-80
2021/10/14 04:40:12;;;;;;;6.37;4.43;;;;;;;10.31;90.75;100198.28;5014719;28;20050;-79
2021/10/14 04:42:41;;;;;;;7.03;4.90;;;;;;;10.31;90.47;100202.94;5013232;28;20054;-80
2021/10/14 04:45:08;;;;;;;6.57;4.27;;;;;;;10.24;89.01;100217.38;5004300;28;20058;-79
2021/10/14 04:47:36;;;;;;;6.27;4.37;;;;;;;10.24;90.77;100233.66;5008393;28;20149;-79
2021/10/14 04:50:05;;;;;;;6.43;4.40;;;;;;;10.29;90.49;100243.28;5037490;28;20418;-80
2021/10/14 04:52:32;;;;;;;6.70;4.43;;;;;;;10.28;90.90;100253.38;5012382;28;20125;-79
2021/10/14 04:54:59;;;;;;;6.60;4.60;;;;;;;10.25;89.74;100265.03;5010858;28;20468;-79
2021/10/14 04:57:26;;;;;;;7.07;4.50;;;;;;;10.24;88.80;100271.66;5013699;28;20053;-80
2021/10/14 04:59:53;;;;;;;8.70;4.93;;;;;;;10.27;89.14;100281.69;5013059;28;20083;-79
2021/10/14 05:02:20;;;;;;;6.67;4.30;;;;;;;10.29;89.84;100292.91;5009455;28;20128;-80
2021/10/14 05:04:47;;;;;;;6.77;4.80;;;;;;;10.28;88.01;100301.44;5014189;28;20080;-80
2021/10/14 05:07:14;;;;;;;6.33;4.83;;;;;;;10.29;89.94;100292.91;5027515;28;20084;-80
2021/10/14 05:09:41;;;;;;;8.77;5.30;;;;;;;10.29;88.69;100320.03;5013994;28;20137;-80
2021/10/14 05:12:08;;;;;;;9.03;5.50;;;;;;;10.28;88.30;100326.63;5033432;28;20128;-78
2021/10/14 05:14:34;;;;;;;9.57;5.73;;;;;;;10.31;88.11;100331.25;5007658;28;20084;-77
2021/10/14 05:17:01;;;;;;;9.83;6.07;;;;;;;10.34;88.86;100333.13;5005633;28;20077;-76
2021/10/14 05:19:28;;;;;;;9.37;6.40;;;;;;;10.36;89.21;100330.03;5009481;28;20108;-77
2021/10/14 05:21:55;;;;;;;9.53;6.37;;;;;;;10.37;88.54;100329.59;5007679;28;20058;-77
2021/10/14 05:24:21;;;;;;;11.50;6.90;;;;;;;10.37;88.60;100335.03;5011027;28;20175;-76
2021/10/14 05:26:48;;;;;;;12.33;7.73;;;;;;;10.36;88.62;100346.28;5008377;28;20080;-79
2021/10/14 05:29:15;;;;;;;9.93;6.57;;;;;;;10.35;88.99;100350.97;5011287;28;20133;-80
2021/10/14 05:31:42;;;;;;;10.23;7.73;;;;;;;10.33;88.37;100369.59;5003194;28;20085;-80
2021/10/14 05:34:08;;;;;;;11.97;7.77;;;;;;;10.33;88.28;100374.25;5010268;28;20112;-79
2021/10/14 05:36:35;;;;;;;12.07;8.27;;;;;;;10.31;86.99;100363.81;5009672;28;20132;-81
2021/10/14 05:39:02;;;;;;;11.87;7.77;;;;;;;10.36;88.73;100368.00;5010570;28;20081;-79
2021/10/14 05:41:29;;;;;;;11.23;7.57;;;;;;;10.37;88.31;100378.44;5007772;28;20128;-79
2021/10/14 05:43:56;;;;;;;10.80;7.67;;;;;;;10.39;88.06;100373.38;5003501;28;20078;-81
2021/10/14 05:46:23;;;;;;;10.93;7.70;;;;;;;10.44;87.43;100375.63;5006372;28;20149;-77
2021/10/14 05:48:50;;;;;;;11.27;7.77;;;;;;;10.49;88.51;100388.72;5006602;28;20058;-77
2021/10/14 05:51:17;;;;;;;11.83;9.07;;;;;;;10.52;87.59;100392.56;5002981;28;20434;-79
2021/10/14 05:53:44;;;;;;;13.97;8.30;;;;;;;10.54;87.28;100396.41;5003335;28;20141;-76
2021/10/14 05:56:10;;;;;;;13.50;8.80;;;;;;;10.56;87.18;100404.91;5008698;28;20084;-78
2021/10/14 05:58:37;;;;;;;15.13;8.93;;;;;;;10.58;87.12;100416.13;5007080;28;20134;-77
2021/10/14 06:01:04;;;;;;;20.13;11.70;;;;;;;10.62;87.15;100401.75;5010385;28;20092;-76
2021/10/14 06:03:31;;;;;;;13.50;9.37;;;;;;;10.58;86.98;100418.84;5010043;28;20078;-76
2021/10/14 06:05:58;;;;;;;13.80;9.17;;;;;;;10.55;87.02;100422.38;5002295;28;20084;-78
2021/10/14 06:08:25;;;;;;;15.40;9.83;;;;;;;10.58;86.71;100423.50;5004821;28;20057;-75
2021/10/14 06:10:51;;;;;;;14.13;9.60;;;;;;;10.66;85.97;100429.59;5004709;28;20133;-76
2021/10/14 06:13:20;;;;;;;13.00;8.87;;;;;;;10.73;86.09;100435.69;5010358;28;20573;-76
2021/10/14 06:15:47;;;;;;;13.97;8.37;;;;;;;10.69;85.58;100436.91;5013630;28;20156;-78
2021/10/14 06:18:18;;;;;;;16.20;10.03;;;;;;;10.70;86.14;100441.16;5014465;28;20089;-76
2021/10/14 06:20:44;;;;;;;16.60;9.40;;;;;;;10.69;85.46;100445.06;5009522;28;20133;-78
2021/10/14 06:23:12;;;;;;;17.63;9.90;;;;;;;10.66;85.51;100441.22;5006853;28;20081;-77
2021/10/14 06:25:39;;;;;;;15.30;9.77;;;;;;;10.71;85.91;100437.28;5009983;28;20511;-76
2021/10/14 06:28:06;;;;;;;20.60;10.43;;;;;;;10.72;86.11;100445.00;5005940;28;20709;-77
2021/10/14 06:30:32;;;;;;;17.03;9.83;;;;;;;10.74;86.48;100444.59;5007078;28;20088;-77
2021/10/14 06:33:00;;;;;;;17.80;10.10;;;;;;;10.76;85.56;100447.69;4997249;28;20407;-77
2021/10/14 06:35:26;;;;;;;15.07;9.43;;;;;;;10.75;84.76;100465.91;5003526;28;20050;-77
2021/10/14 06:37:55;;;;;;;17.10;9.87;;;;;;;10.80;85.96;100468.19;5023953;28;20136;-76
2021/10/14 06:40:22;;;;;;;14.90;10.20;;;;;;;10.81;86.40;100485.25;5016231;28;20057;-76
2021/10/14 06:42:51;;;;;;;20.13;10.47;;;;;;;10.79;84.25;100482.16;5013405;28;20517;-77
2021/10/14 06:45:19;;;;;;;20.43;11.13;;;;;;;10.74;84.61;100486.09;5010288;28;20081;-77
2021/10/14 06:47:46;;;;;;;19.53;11.70;;;;;;;10.71;84.49;100502.44;5023217;28;20104;-77
2021/10/14 06:50:12;;;;;;;20.13;11.13;;;;;;;10.68;85.25;100503.25;5021522;28;20133;-80
2021/10/14 06:52:39;;;;;;;17.40;10.60;;;;;;;10.69;84.93;100504.78;5015007;28;20100;-79
2021/10/14 06:55:06;;;;;;;18.67;10.40;;;;;;;10.62;83.84;100508.41;5014705;28;20088;-79
2021/10/14 06:57:33;;;;;;;19.43;10.50;;;;;;;10.66;84.98;100519.19;5015194;28;20062;-78
2021/10/14 07:00:00;;;;;;;24.10;11.53;;;;;;;10.68;85.02;100514.13;5031049;28;20046;-80
2021/10/14 07:02:27;;;;;;;18.07;9.93;;;;;;;10.68;82.98;100512.16;5012675;28;20112;-78
2021/10/14 07:04:54;;;;;;;24.33;11.43;;;;;;;10.68;84.29;100535.84;5014662;28;20061;-79
2021/10/14 07:07:21;;;;;;;18.53;11.23;;;;;;;10.66;85.50;100528.09;5013237;28;20453;-79
2021/10/14 07:09:48;;;;;;;15.50;10.60;;;;;;;10.71;85.11;100540.47;5048019;28;20045;-79
2021/10/14 07:12:15;;;;;;;18.97;10.87;;;;;;;10.68;84.57;100541.28;4998722;28;20125;-79
2021/10/14 07:14:43;;;;;;;16.80;10.87;;;;;;;10.67;82.92;100554.06;5013298;28;20132;-79
2021/10/14 07:17:10;;;;;;;17.70;11.60;;;;;;;10.70;84.43;100547.06;5008458;28;20085;-79
2021/10/14 07:19:37;;;;;;;17.73;10.63;;;;;;;10.74;82.17;100558.66;5013167;28;20137;-78
2021/10/14 07:22:05;;;;;;;18.80;10.87;;;;;;;10.78;84.50;100567.53;5010928;28;20537;-79
2021/10/14 07:24:32;;;;;;;17.83;10.30;;;;;;;10.78;82.87;100567.53;5011739;28;20050;-77
2021/10/14 07:26:59;;;;;;;20.23;12.03;;;;;;;10.79;82.98;100579.94;5027979;28;20077;-79
2021/10/14 07:29:27;;;;;;;22.23;11.87;;;;;;;10.81;83.83;100577.56;5012242;28;20049;-78
2021/10/14 07:31:55;;;;;;;20.40;12.30;;;;;;;10.76;82.79;100580.75;5007575;28;20093;-79
2021/10/14 07:34:22;;;;;;;20.03;11.93;;;;;;;10.79;83.67;100585.34;5009839;28;20455;-79
2021/10/14 07:36:49;;;;;;;18.30;12.10;;;;;;;10.84;83.50;100587.63;5009177;28;20506;-77
2021/10/14 07:39:16;;;;;;;18.20;10.30;;;;;;;10.68;79.50;100599.06;5011626;28;20128;-82
2021/10/14 07:41:44;;;;;;;20.40;12.03;;;;;;;10.52;80.13;100596.16;5006519;28;20042;-84
2021/10/14 07:44:13;;;;;;;21.00;13.00;;;;;;;10.44;80.42;100602.84;5001683;28;20042;-85
2021/10/14 07:46:40;;;;;;;18.43;11.73;;;;;;;10.59;82.35;100601.50;5021615;28;20490;-80
2021/10/14 07:49:07;;;;;;;18.60;10.70;;;;;;;10.61;79.69;100610.03;5012116;28;20092;-85
2021/10/14 07:51:35;;;;;;;17.53;10.70;;;;;;;10.68;78.86;100622.72;5002325;28;20334;-78
2021/10/14 07:54:05;;;;;;;18.23;10.63;;;;;;;10.79;80.61;100620.66;5006818;28;20128;-77
2021/10/14 07:56:32;;;;;;;18.00;10.90;;;;;;;10.83;79.36;100613.25;5008026;28;20078;-76
2021/10/14 07:59:00;;;;;;;18.03;11.30;;;;;;;10.84;81.55;100621.00;5002090;28;20078;-75
2021/10/14 08:01:27;;;;;;;17.07;10.47;;;;;;;10.75;78.17;100628.09;5006212;28;20953;-82
2021/10/14 08:03:54;;;;;;;19.07;9.87;;;;;;;10.85;81.25;100638.81;5017902;28;20076;-75
2021/10/14 08:06:21;;;;;;;18.90;10.70;;;;;;;10.88;80.93;100648.84;5009552;28;20046;-79
2021/10/14 08:08:48;;;;;;;15.93;10.50;;;;;;;10.79;77.72;100645.88;5010969;28;20049;-76
2021/10/14 08:11:15;;;;;;;15.60;9.97;;;;;;;10.87;80.85;100651.97;5008001;28;20493;-81
2021/10/14 08:13:42;;;;;;;15.27;9.93;;;;;;;10.86;80.80;100664.81;5017082;28;20046;-87
2021/10/14 08:16:10;;;;;;;16.23;9.73;;;;;;;10.95;81.47;100664.31;5018847;28;20042;-82
2021/10/14 08:18:37;;;;;;;22.20;10.70;;;;;;;10.96;81.33;100673.22;5028291;28;20042;-76
2021/10/14 08:21:04;;;;;;;19.43;10.50;;;;;;;10.79;76.96;100678.47;5006057;28;20065;-76
2021/10/14 08:23:31;;;;;;;16.23;9.70;;;;;;;10.87;76.62;100687.28;5004164;28;20046;-74
2021/10/14 08:25:58;;;;;;;15.80;10.67;;;;;;;10.85;79.55;100695.09;5012335;28;20141;-75
2021/10/14 08:28:26;;;;;;;22.10;10.53;;;;;;;10.89;79.09;100687.66;5006122;28;20476;-76
2021/10/14 08:30:54;;;;;;;19.40;10.43;;;;;;;10.94;77.65;100673.63;5021285;28;20116;-76
2021/10/14 08:33:21;;;;;;;20.17;10.20;;;;;;;10.90;79.02;100678.31;5005280;28;20129;-76
2021/10/14 08:35:48;;;;;;;16.27;11.50;;;;;;;10.92;77.28;100681.41;5022617;28;20046;-77
2021/10/14 08:51:59;;;;;;;18.13;10.30;;;;;;;11.32;80.43;100719.75;31318593;27;20465;-77
2021/10/14 09:07:15;;;;;;;18.17;10.93;;;;;;;11.54;73.96;100748.19;31263801;28;20057;-76
2021/10/14 09:22:17;;;;;;;20.47;10.60;;;;;;;11.49;75.94;100751.38;31245102;28;20405;-78
2021/10/14 09:37:19;;;;;;;20.73;12.17;;;;;;;11.40;76.88;100781.00;31285888;28;20062;-76
2021/10/14 09:52:21;;;;;;;21.93;11.50;;;;;;;11.52;72.83;100783.19;31228213;28;20053;-84
2021/10/14 10:07:24;;;;;;;17.27;10.17;;;;;;;11.72;74.07;100818.66;31197879;28;20116;-77
2021/10/14 10:22:35;;;;;;;15.77;9.73;;;;;;;12.13;70.17;100821.22;31181028;28;20053;-78
2021/10/14 10:52:45;;;;;;;12.37;7.67;;;;;;;13.92;63.69;100851.13;31156477;28;20056;-75
2021/10/14 11:08:04;;;;;;;13.50;6.70;;;;;;;14.45;57.91;100870.25;31149061;28;20088;-77
2021/10/14 11:23:08;;;;;;;12.87;6.70;;;;;;;13.86;61.61;100898.44;31155048;28;20065;-75
2021/10/14 11:38:12;;;;;;;12.27;6.30;;;;;;;14.32;60.80;100897.44;31138914;28;20144;-75
2021/10/14 11:53:14;;;;;;;9.27;6.13;;;;;;;14.75;57.58;100926.53;31147161;28;20050;-81
2021/10/14 12:08:21;;;;;;;11.37;6.17;;;;;;;15.06;56.39;100938.69;31194641;28;20107;-77
2021/10/14 12:23:32;;;;;;;11.13;7.23;;;;;;;14.21;56.31;100946.06;31192727;28;20064;-88
2021/10/14 12:38:38;;;;;;;12.63;8.07;;;;;;;14.43;57.52;100949.91;31180451;28;20053;-85
2021/10/14 12:53:48;;;;;;;;;;;;;;;14.23;54.90;100960.06;31172997;28;20457;-79
2021/10/14 13:08:56;;;;;;;14.10;8.73;;;;;;;13.74;58.57;100973.50;31191696;28;19921;-81
2021/10/14 13:23:59;;;;;;;12.97;8.10;;;;;;;13.60;58.85;101001.06;31165433;23;20053;-78
2021/10/14 13:39:01;;;;;;;15.73;8.97;;;;;;;13.17;57.98;100993.63;31168270;28;20042;-90
2021/10/14 13:54:03;;;;;;;16.57;8.83;;;;;;;13.10;59.20;100995.63;31173198;28;20054;-87
2021/10/14 14:09:06;;;;;;;12.47;8.80;;;;;;;12.87;59.84;101016.22;31160906;28;20425;-86
2021/10/14 14:24:08;;;;;;;12.97;7.70;;;;;;;12.48;61.16;101030.38;31099753;28;20045;-84
2021/10/14 14:39:41;;;;;;;11.80;7.47;;;;;;;12.13;61.76;101053.34;31160193;28;20053;-90
2021/10/14 14:54:43;;;;;;;13.30;9.10;;;;;;;11.88;63.35;101050.88;31193659;28;20493;-89
2021/10/14 15:09:45;;;;;;;15.17;7.60;;;;;;;11.61;64.29;101069.75;31118586;28;20050;-90
2021/10/14 15:24:47;;;;;;;15.27;8.37;;;;;;;11.48;64.32;101092.41;31122084;28;20054;-91
2021/10/14 15:39:51;;;;;;;17.47;9.73;;;;;;;11.33;65.54;101101.84;31128258;28;20134;-85
2021/10/14 15:54:58;;;;;;;15.77;9.70;;;;;;;11.24;65.63;101122.09;31111306;28;20077;-88
2021/10/14 16:10:00;;;;;;;18.07;9.47;;;;;;;11.24;65.20;101143.81;31135542;28;20073;-89
2021/10/14 16:25:05;;;;;;;18.20;10.33;;;;;;;11.14;65.55;101160.94;31171725;28;20093;-88
2021/10/14 16:40:09;;;;;;;23.97;12.67;;;;;;;10.99;66.55;101175.78;31187188;28;20479;-89
2021/10/14 16:55:16;;;;;;;18.03;11.40;;;;;;;10.94;66.88;101195.19;31170320;28;20505;-89
2021/10/14 17:10:21;;;;;;;24.33;12.07;;;;;;;10.71;67.34;101213.91;31166668;28;20054;-90
2021/10/14 17:55:52;;;;;;;22.43;11.77;;;;;;;10.36;68.85;101215.53;31201874;28;20065;-83
2021/10/14 18:41:37;;;;;;;17.73;10.47;;;;;;;10.34;69.79;101233.38;31185522;28;20056;-90
2021/10/14 18:56:43;;;;;;;22.83;11.53;;;;;;;10.14;71.18;101246.53;31201172;28;20050;-83
2021/10/14 20:28:27;;;;;;;18.67;9.73;;;;;;;9.97;70.10;101279.81;31234962;28;20045;-85
2021/10/14 20:43:29;;;;;;;20.40;9.97;;;;;;;9.71;69.81;101300.69;31261733;28;20392;-84
2021/10/14 21:13:52;;;;;;;23.80;12.37;;;;;;;9.42;72.41;101283.56;31225293;28;20061;-90
2021/10/14 21:29:08;;;;;;;43.63;26.87;;;;;;;9.37;71.82;101280.44;31212018;28;20046;-90
2021/10/14 21:44:10;;;;;;;38.70;23.03;;;;;;;9.27;72.78;101287.34;31189299;28;20053;-87
2021/10/14 21:59:14;;;;;;;64.03;33.83;;;;;;;9.22;74.23;101295.84;31189100;28;20046;-81
2021/10/14 22:14:16;;;;;;;39.50;22.23;;;;;;;9.17;74.50;101297.00;31242003;28;20046;-90
2021/10/14 22:29:18;;;;;;;39.47;22.70;;;;;;;9.18;75.45;101282.31;31219062;28;20057;-88
2021/10/14 22:44:20;;;;;;;36.87;21.40;;;;;;;9.23;76.27;101281.91;31223157;28;20473;-82
2021/10/14 22:59:22;;;;;;;36.73;21.43;;;;;;;9.04;76.86;101287.63;31179165;28;20514;-88
2021/10/14 23:14:25;;;;;;;40.13;21.93;;;;;;;8.96;77.64;101272.50;31212802;28;20057;-87
2021/10/14 23:29:27;;;;;;;35.57;22.03;;;;;;;8.90;79.07;101279.44;31168141;28;20053;-83
2021/10/14 23:44:29;;;;;;;53.63;25.50;;;;;;;8.92;78.09;101277.13;31133305;28;20049;-82
2021/10/14 23:59:31;;;;;;;64.23;30.53;;;;;;;8.96;81.65;101271.75;31148504;28;20049;-86
